Time;durP1;ratioP1;P1;durP2;ratioP2;P2;SDS_P1;SDS_P2;PMS_P1;PMS_P2;Temp;Humidity;BMP_temperature;BMP_pressure;BME280_temperature;BME280_humidity;BME280_pressure;Samples;Min_cycle;Max_cycle;Signal;HPM_P1;HPM_P2
2021/04/28 00:00:34;;;;;;;21.35;15.57;;;8.90;59.80;;;;;;5059674;28;20128;-78
2021/04/28 00:03:03;;;;;;;19.92;15.20;;;8.90;59.10;;;;;;5066030;28;20104;-76
2021/04/28 00:05:28;;;;;;;17.85;14.15;;;8.90;58.30;;;;;;5052973;28;20103;-76
2021/04/28 00:07:54;;;;;;;17.90;13.05;;;8.90;58.10;;;;;;5061080;28;20540;-82
2021/04/28 00:10:28;;;;;;;17.05;13.25;;;8.90;57.60;;;;;;5063771;28;20039;-76
2021/04/28 00:12:54;;;;;;;21.08;13.05;;;8.90;57.70;;;;;;5063137;28;20028;-75
2021/04/28 00:15:23;;;;;;;18.02;13.65;;;8.90;57.40;;;;;;5058376;28;21229;-76
2021/04/28 00:17:50;;;;;;;16.52;13.57;;;8.90;57.50;;;;;;5060296;28;20127;-75
2021/04/28 00:20:16;;;;;;;17.75;13.10;;;8.80;57.70;;;;;;5065363;28;20491;-75
2021/04/28 00:22:41;;;;;;;17.48;11.98;;;8.80;56.50;;;;;;5062001;28;20039;-75
2021/04/28 00:25:09;;;;;;;15.77;11.73;;;8.80;55.90;;;;;;5063052;28;20044;-75
2021/04/28 00:27:35;;;;;;;14.45;11.15;;;8.80;55.70;;;;;;5056424;28;20116;-75
2021/04/28 00:30:04;;;;;;;13.75;10.35;;;8.80;55.00;;;;;;5063737;28;20569;-77
2021/04/28 00:32:30;;;;;;;16.70;12.20;;;8.80;54.90;;;;;;5062604;28;20464;-75
2021/04/28 00:34:56;;;;;;;15.10;11.48;;;8.80;54.60;;;;;;5051750;28;20033;-82
2021/04/28 00:37:22;;;;;;;16.25;10.98;;;8.80;54.90;;;;;;5049674;28;20116;-78
2021/04/28 00:39:47;;;;;;;14.70;10.80;;;8.80;55.00;;;;;;5068398;28;20598;-76
2021/04/28 00:42:16;;;;;;;14.40;10.00;;;8.70;54.70;;;;;;5060402;28;20040;-79
2021/04/28 00:44:42;;;;;;;14.82;10.35;;;8.70;54.70;;;;;;5061089;28;20043;-76
2021/04/28 00:47:08;;;;;;;14.82;10.32;;;8.70;54.70;;;;;;5070976;28;20464;-76
2021/04/28 00:49:34;;;;;;;15.60;9.57;;;8.70;54.40;;;;;;5052727;28;20083;-80
2021/04/28 00:52:01;;;;;;;14.27;9.52;;;8.70;54.50;;;;;;5048956;28;20044;-80
2021/04/28 00:54:28;;;;;;;13.07;9.40;;;8.60;54.60;;;;;;5064508;28;20091;-75
2021/04/28 00:56:56;;;;;;;12.40;8.95;;;8.60;54.30;;;;;;5064574;28;20069;-77
2021/04/28 00:59:22;;;;;;;13.20;8.43;;;8.60;53.80;;;;;;5064739;28;20119;-82
2021/04/28 01:01:48;;;;;;;13.40;8.38;;;8.60;53.20;;;;;;5065344;28;20119;-75
2021/04/28 01:04:15;;;;;;;13.73;8.70;;;8.60;53.10;;;;;;5070143;28;20232;-76
2021/04/28 01:06:44;;;;;;;11.75;8.40;;;8.60;53.00;;;;;;5080434;28;20450;-78
2021/04/28 01:09:11;;;;;;;12.63;8.25;;;8.60;52.60;;;;;;5062861;28;20122;-76
2021/04/28 01:11:38;;;;;;;10.27;7.88;;;8.60;52.90;;;;;;5056525;28;20490;-75
2021/04/28 01:14:03;;;;;;;10.95;7.78;;;8.60;52.80;;;;;;5066833;28;20036;-75
2021/04/28 01:16:29;;;;;;;14.00;9.40;;;8.60;52.70;;;;;;5059105;28;20403;-76
2021/04/28 01:18:56;;;;;;;12.07;8.35;;;8.60;52.90;;;;;;5062962;28;20048;-79
2021/04/28 01:21:22;;;;;;;16.92;8.20;;;8.60;52.90;;;;;;5056475;28;20075;-75
2021/04/28 01:23:47;;;;;;;11.73;7.95;;;8.60;52.50;;;;;;5063416;28;20433;-77
2021/04/28 01:26:14;;;;;;;12.68;8.05;;;8.60;52.70;;;;;;5061306;28;20115;-79
2021/04/28 01:28:41;;;;;;;12.25;8.00;;;8.60;52.30;;;;;;5067231;28;20044;-75
2021/04/28 01:31:12;;;;;;;13.27;8.68;;;8.60;52.60;;;;;;5062811;28;20087;-80
2021/04/28 01:33:41;;;;;;;10.77;7.75;;;8.60;52.60;;;;;;5077779;28;20524;-76
2021/04/28 01:36:12;;;;;;;11.45;7.57;;;8.60;52.60;;;;;;5063533;28;20033;-81
2021/04/28 01:38:40;;;;;;;14.80;9.25;;;8.60;52.10;;;;;;5064174;28;20053;-78
2021/04/28 01:41:07;;;;;;;12.45;7.88;;;8.60;52.20;;;;;;5060439;28;20120;-76
2021/04/28 01:43:33;;;;;;;12.30;7.78;;;8.60;52.20;;;;;;5063221;28;20032;-76
2021/04/28 01:45:59;;;;;;;13.07;8.77;;;8.60;52.00;;;;;;5060968;28;20039;-76
2021/04/28 01:48:24;;;;;;;13.02;9.40;;;8.60;52.30;;;;;;5064752;28;20044;-76
2021/04/28 01:50:52;;;;;;;15.27;9.77;;;8.50;52.60;;;;;;5062093;28;20115;-77
2021/04/28 01:53:21;;;;;;;13.45;8.70;;;8.40;52.90;;;;;;5066883;28;20032;-75
2021/04/28 01:55:50;;;;;;;12.38;7.57;;;8.40;53.00;;;;;;5044742;28;20041;-77
2021/04/28 01:58:16;;;;;;;13.52;7.63;;;8.30;52.80;;;;;;5041720;28;20069;-75
2021/04/28 02:00:42;;;;;;;10.85;7.75;;;8.40;52.70;;;;;;5058565;28;20083;-77
2021/04/28 02:03:08;;;;;;;11.82;8.30;;;8.40;52.70;;;;;;5061042;28;20491;-75
2021/04/28 02:05:34;;;;;;;12.00;8.23;;;8.30;52.80;;;;;;5062489;28;20032;-75
2021/04/28 02:08:00;;;;;;;12.98;8.43;;;8.20;52.90;;;;;;5064565;28;20050;-75
2021/04/28 02:10:26;;;;;;;23.05;8.27;;;8.20;53.00;;;;;;5065258;28;20041;-77
2021/04/28 02:12:53;;;;;;;13.48;8.40;;;8.20;53.30;;;;;;5057896;28;20029;-83
2021/04/28 02:15:21;;;;;;;11.23;7.75;;;8.10;53.40;;;;;;5060720;28;20049;-76
2021/04/28 02:17:53;;;;;;;13.70;8.43;;;8.10;53.50;;;;;;5061933;28;20033;-83
2021/04/28 02:20:20;;;;;;;12.65;8.23;;;8.10;53.50;;;;;;5059948;28;20376;-76
2021/04/28 02:22:46;;;;;;;12.75;8.13;;;8.10;53.50;;;;;;5060814;28;20029;-75
2021/04/28 02:25:12;;;;;;;12.45;8.43;;;8.10;53.80;;;;;;5050318;28;20087;-76
2021/04/28 02:27:38;;;;;;;12.32;8.45;;;8.10;53.70;;;;;;5047869;28;20616;-75
2021/04/28 02:30:14;;;;;;;12.70;7.82;;;8.10;53.60;;;;;;5045473;28;21623;-75
2021/04/28 02:32:42;;;;;;;11.70;7.28;;;8.10;53.70;;;;;;5041370;28;20457;-76
2021/04/28 02:35:09;;;;;;;12.95;7.50;;;8.00;53.60;;;;;;5040652;28;20067;-78
2021/04/28 02:37:36;;;;;;;14.13;7.93;;;8.00;53.50;;;;;;5052846;28;20037;-75
2021/04/28 02:40:07;;;;;;;10.30;7.30;;;8.00;53.40;;;;;;5038017;28;20057;-75
2021/04/28 02:42:33;;;;;;;13.02;8.07;;;8.00;53.30;;;;;;5040788;28;20400;-75
2021/04/28 02:45:00;;;;;;;12.63;8.70;;;7.90;53.50;;;;;;5040817;28;20568;-77
2021/04/28 02:47:27;;;;;;;10.07;7.00;;;7.90;53.70;;;;;;5051886;28;20053;-76
2021/04/28 02:49:53;;;;;;;10.07;6.78;;;7.90;53.70;;;;;;5044659;28;20503;-76
2021/04/28 02:52:20;;;;;;;10.07;7.68;;;7.90;53.90;;;;;;5043674;28;20124;-80
2021/04/28 02:54:47;;;;;;;11.70;8.93;;;7.80;54.40;;;;;;5054005;28;20043;-82
2021/04/28 02:57:13;;;;;;;11.70;8.50;;;7.80;54.90;;;;;;5039619;28;20090;-76
2021/04/28 02:59:39;;;;;;;11.77;9.02;;;7.70;55.50;;;;;;5038333;28;20499;-76
2021/04/28 03:02:07;;;;;;;11.07;8.90;;;7.60;55.90;;;;;;5043015;28;20033;-76
2021/04/28 03:04:37;;;;;;;11.32;8.45;;;7.60;56.30;;;;;;5038292;28;20028;-76
2021/04/28 03:07:03;;;;;;;12.07;7.97;;;7.50;56.40;;;;;;5053071;28;20033;-76
2021/04/28 03:09:29;;;;;;;12.68;8.65;;;7.50;56.40;;;;;;5035242;28;20384;-80
2021/04/28 03:11:55;;;;;;;12.13;8.02;;;7.40;56.70;;;;;;5048479;28;20040;-76
2021/04/28 03:14:20;;;;;;;11.40;7.30;;;7.40;56.40;;;;;;5055647;28;20047;-77
2021/04/28 03:16:46;;;;;;;10.68;7.75;;;7.30;56.10;;;;;;5044831;28;20041;-77
2021/04/28 03:19:12;;;;;;;12.45;7.88;;;7.30;56.00;;;;;;5060447;28;20077;-77
2021/04/28 03:21:42;;;;;;;10.57;7.63;;;7.30;55.60;;;;;;5061526;28;20037;-76
2021/04/28 03:24:09;;;;;;;11.07;7.07;;;7.40;55.20;;;;;;5038646;28;20033;-76
2021/04/28 03:26:35;;;;;;;11.95;7.57;;;7.40;55.10;;;;;;5059367;28;20024;-76
2021/04/28 03:29:01;;;;;;;15.40;7.45;;;7.50;54.90;;;;;;5043096;28;20044;-79
2021/04/28 03:31:27;;;;;;;12.15;7.32;;;7.40;55.10;;;;;;5060728;28;20388;-76
2021/04/28 03:33:52;;;;;;;11.38;7.15;;;7.50;54.80;;;;;;5064841;28;20029;-80
2021/04/28 03:36:18;;;;;;;10.18;7.32;;;7.60;54.50;;;;;;5065234;28;20044;-75
2021/04/28 03:38:44;;;;;;;11.93;7.40;;;7.60;54.50;;;;;;5062191;28;20040;-77
2021/04/28 03:41:10;;;;;;;9.20;6.55;;;7.60;54.70;;;;;;5060545;28;20374;-83
2021/04/28 03:43:35;;;;;;;11.68;7.10;;;7.60;54.50;;;;;;5049458;28;20408;-76
2021/04/28 03:46:01;;;;;;;9.55;7.03;;;7.70;54.30;;;;;;5055670;28;20374;-78
2021/04/28 03:48:27;;;;;;;11.95;7.00;;;7.90;53.30;;;;;;5044610;28;20480;-76
2021/04/28 03:50:53;;;;;;;9.60;6.88;;;8.00;53.10;;;;;;5039225;28;20025;-76
2021/04/28 03:53:18;;;;;;;14.95;7.47;;;8.10;53.10;;;;;;5033525;28;20037;-76
2021/04/28 03:55:44;;;;;;;12.23;7.68;;;8.00;54.10;;;;;;5036952;28;20037;-78
2021/04/28 03:58:10;;;;;;;11.52;7.78;;;7.90;55.10;;;;;;5042871;28;20047;-76
2021/04/28 04:00:36;;;;;;;12.57;7.80;;;7.90;55.90;;;;;;5038818;28;20041;-82
2021/04/28 04:03:04;;;;;;;12.65;7.57;;;7.80;56.00;;;;;;5033007;28;20038;-76
2021/04/28 04:05:30;;;;;;;12.85;7.50;;;7.70;56.40;;;;;;5036943;28;20057;-82
2021/04/28 04:07:55;;;;;;;9.75;7.20;;;7.70;55.40;;;;;;5041231;28;20427;-76
2021/04/28 04:10:21;;;;;;;11.82;7.78;;;7.80;55.10;;;;;;5038599;28;20036;-75
2021/04/28 04:12:47;;;;;;;12.40;8.18;;;7.80;55.00;;;;;;5035806;28;20026;-75
2021/04/28 04:15:12;;;;;;;10.82;7.03;;;7.80;54.70;;;;;;5039619;28;20408;-76
2021/04/28 04:17:38;;;;;;;11.20;7.35;;;7.80;53.80;;;;;;5053504;28;20028;-80
2021/04/28 04:20:04;;;;;;;12.77;8.00;;;7.90;53.30;;;;;;5060339;28;20056;-76
2021/04/28 04:22:30;;;;;;;10.90;8.00;;;8.00;53.20;;;;;;5058443;28;20116;-76
2021/04/28 04:24:56;;;;;;;11.60;7.57;;;8.00;53.50;;;;;;5043565;28;20556;-80
2021/04/28 04:27:22;;;;;;;15.35;8.30;;;8.10;53.60;;;;;;5046047;28;20041;-77
2021/04/28 04:29:48;;;;;;;13.27;8.00;;;8.10;53.40;;;;;;5047304;28;20128;-76
2021/04/28 04:32:13;;;;;;;14.10;7.70;;;8.10;53.50;;;;;;5042771;28;20461;-80
2021/04/28 04:34:39;;;;;;;9.98;7.20;;;8.00;53.20;;;;;;5041797;28;20080;-78
2021/04/28 04:37:05;;;;;;;13.25;8.27;;;8.10;53.00;;;;;;5045093;28;20044;-79
2021/04/28 04:39:31;;;;;;;11.85;8.07;;;8.10;53.20;;;;;;5037931;28;20037;-76
2021/04/28 04:41:56;;;;;;;14.00;8.10;;;8.10;52.90;;;;;;5039234;28;20500;-76
2021/04/28 04:44:22;;;;;;;11.63;8.05;;;8.10;53.20;;;;;;5036975;28;20465;-78
2021/04/28 04:46:48;;;;;;;11.57;8.43;;;8.10;53.90;;;;;;5042448;28;20037;-81
2021/04/28 04:49:13;;;;;;;13.07;8.30;;;8.10;53.80;;;;;;5042289;28;20034;-78
2021/04/28 04:51:39;;;;;;;14.68;8.70;;;8.10;53.80;;;;;;5040510;28;20037;-76
2021/04/28 04:54:05;;;;;;;12.77;8.88;;;8.10;54.00;;;;;;5041055;28;20123;-76
2021/04/28 04:56:31;;;;;;;13.80;8.98;;;8.10;53.70;;;;;;5058285;28;20068;-75
2021/04/28 04:58:57;;;;;;;14.15;9.25;;;8.00;54.20;;;;;;5043759;28;20512;-80
2021/04/28 05:01:22;;;;;;;14.70;9.77;;;8.10;54.60;;;;;;5032974;28;20037;-75
2021/04/28 05:03:48;;;;;;;16.02;9.82;;;8.00;55.00;;;;;;5041034;28;20095;-76
2021/04/28 05:06:14;;;;;;;14.13;9.00;;;8.10;55.00;;;;;;5037819;28;20460;-76
2021/04/28 05:08:39;;;;;;;17.40;10.18;;;8.00;55.20;;;;;;5037688;28;20133;-79
2021/04/28 05:11:05;;;;;;;16.92;9.80;;;8.10;55.00;;;;;;5045244;28;20037;-75
2021/04/28 05:13:30;;;;;;;14.95;9.43;;;8.10;55.10;;;;;;5042157;28;20115;-76
2021/04/28 05:15:56;;;;;;;15.20;9.68;;;8.10;55.40;;;;;;5032200;28;20037;-75
2021/04/28 05:18:22;;;;;;;15.27;9.10;;;8.10;55.40;;;;;;5045996;28;20519;-76
2021/04/28 05:20:47;;;;;;;14.57;9.75;;;8.10;55.60;;;;;;5059501;28;20116;-76
2021/04/28 05:23:13;;;;;;;15.95;9.60;;;8.10;55.40;;;;;;5049405;28;20063;-77
2021/04/28 05:25:38;;;;;;;16.30;9.75;;;8.10;55.50;;;;;;5043589;28;20662;-75
2021/04/28 05:28:05;;;;;;;25.08;10.25;;;8.00;55.80;;;;;;5043512;28;20426;-78
2021/04/28 05:30:31;;;;;;;15.95;10.65;;;8.00;55.50;;;;;;5034541;28;20129;-77
2021/04/28 05:32:56;;;;;;;16.20;9.95;;;8.00;55.40;;;;;;5043770;28;20100;-69
2021/04/28 05:35:22;;;;;;;15.82;9.98;;;8.00;54.90;;;;;;5034438;28;20465;-69
2021/04/28 05:37:49;;;;;;;16.83;9.43;;;8.10;54.90;;;;;;5037836;28;20048;-69
2021/04/28 05:40:16;;;;;;;17.58;9.20;;;8.10;54.80;;;;;;5036396;28;20543;-69
2021/04/28 05:42:41;;;;;;;17.70;10.13;;;8.30;55.00;;;;;;5035689;28;20064;-70
2021/04/28 05:45:10;;;;;;;15.15;10.05;;;8.30;55.10;;;;;;5059924;28;20060;-70
2021/04/28 05:47:36;;;;;;;16.40;10.13;;;8.30;55.10;;;;;;5061242;28;20136;-69
2021/04/28 05:50:07;;;;;;;17.25;10.45;;;8.40;55.20;;;;;;5058726;28;20104;-69
2021/04/28 05:52:32;;;;;;;15.35;9.70;;;8.40;55.10;;;;;;5054814;28;20016;-69
2021/04/28 05:54:58;;;;;;;18.05;9.98;;;8.60;55.20;;;;;;5052089;28;20480;-72
2021/04/28 05:57:24;;;;;;;20.58;10.35;;;8.60;55.50;;;;;;5059419;28;20089;-69
2021/04/28 05:59:49;;;;;;;18.15;10.30;;;8.70;55.70;;;;;;5059909;28;20100;-69
2021/04/28 06:02:15;;;;;;;14.10;10.07;;;8.70;55.70;;;;;;5058306;28;20044;-70
2021/04/28 06:04:41;;;;;;;18.52;10.25;;;8.80;54.90;;;;;;5061990;28;20025;-69
2021/04/28 06:07:06;;;;;;;15.20;10.35;;;8.90;55.50;;;;;;5062618;28;20036;-71
2021/04/28 06:09:33;;;;;;;15.07;11.27;;;9.20;55.50;;;;;;5060118;28;20115;-69
2021/04/28 06:11:59;;;;;;;15.30;10.02;;;9.10;55.00;;;;;;5060447;28;20484;-70
2021/04/28 06:14:24;;;;;;;16.70;10.48;;;9.40;53.50;;;;;;5063285;28;20044;-71
2021/04/28 06:16:50;;;;;;;17.65;10.50;;;9.50;52.80;;;;;;5060193;28;20035;-70
2021/04/28 06:19:16;;;;;;;16.63;11.40;;;9.60;52.40;;;;;;5058390;28;20086;-69
2021/04/28 06:21:42;;;;;;;15.07;10.90;;;9.50;52.80;;;;;;5066282;28;20043;-77
2021/04/28 06:24:10;;;;;;;20.00;12.90;;;9.60;52.50;;;;;;5061269;28;20080;-69
2021/04/28 06:26:37;;;;;;;19.02;10.82;;;9.70;52.80;;;;;;5060102;28;20032;-69
2021/04/28 06:29:03;;;;;;;15.93;10.40;;;9.70;52.30;;;;;;5055862;28;20048;-69
2021/04/28 06:31:29;;;;;;;19.92;10.90;;;9.90;51.80;;;;;;5057852;28;20028;-69
2021/04/28 06:33:54;;;;;;;18.50;10.43;;;10.10;51.80;;;;;;5061588;28;20613;-69
2021/04/28 06:36:20;;;;;;;13.70;10.27;;;10.10;51.40;;;;;;5062574;28;20032;-68
2021/04/28 06:38:46;;;;;;;18.63;11.20;;;10.00;51.20;;;;;;5060418;28;20033;-68
2021/04/28 06:41:11;;;;;;;17.48;10.93;;;10.20;51.30;;;;;;5060720;28;20028;-71
2021/04/28 06:43:37;;;;;;;13.10;10.60;;;10.10;51.10;;;;;;5058452;28;20040;-69
2021/04/28 06:46:03;;;;;;;16.00;11.18;;;10.20;51.30;;;;;;5059111;28;20060;-69
2021/04/28 06:48:28;;;;;;;19.17;10.98;;;10.40;50.20;;;;;;5060111;28;20075;-68
2021/04/28 06:50:54;;;;;;;19.48;11.75;;;10.40;50.40;;;;;;5056720;28;20041;-72
2021/04/28 06:53:22;;;;;;;16.05;10.75;;;10.60;51.10;;;;;;5061233;28;20033;-69
2021/04/28 06:55:48;;;;;;;14.50;10.65;;;10.60;50.60;;;;;;5062920;28;20119;-70
2021/04/28 06:58:13;;;;;;;17.02;10.85;;;10.50;50.40;;;;;;5062695;28;20067;-71
2021/04/28 07:00:39;;;;;;;14.50;10.70;;;11.10;49.70;;;;;;5058156;28;20060;-70
2021/04/28 07:03:05;;;;;;;16.35;10.63;;;11.40;49.00;;;;;;5061745;28;20495;-68
2021/04/28 07:05:31;;;;;;;17.38;11.05;;;11.60;48.70;;;;;;5061500;28;20073;-69
2021/04/28 07:07:57;;;;;;;16.77;11.60;;;11.70;46.70;;;;;;5067203;28;20049;-69
2021/04/28 07:10:22;;;;;;;17.55;11.00;;;11.60;47.40;;;;;;5056599;28;20041;-69
2021/04/28 07:12:48;;;;;;;13.57;10.02;;;11.60;47.00;;;;;;5056920;28;20033;-69
2021/04/28 07:15:14;;;;;;;14.25;10.77;;;11.50;47.30;;;;;;5057531;28;20029;-68
2021/04/28 07:17:40;;;;;;;18.52;10.80;;;11.40;47.30;;;;;;5057368;28;20029;-68
2021/04/28 07:20:07;;;;;;;16.52;10.80;;;11.60;47.30;;;;;;5061325;28;20487;-69
2021/04/28 07:22:34;;;;;;;17.63;11.15;;;11.50;47.00;;;;;;5052726;28;20029;-69
2021/04/28 07:24:59;;;;;;;19.00;11.02;;;11.40;47.40;;;;;;5057809;28;20434;-69
2021/04/28 07:27:25;;;;;;;15.75;10.38;;;11.60;47.20;;;;;;5052622;28;20044;-68
2021/04/28 07:29:51;;;;;;;15.68;10.88;;;11.60;46.80;;;;;;5064655;28;20048;-69
2021/04/28 07:32:17;;;;;;;18.17;10.38;;;11.60;46.70;;;;;;5053585;28;20036;-73
2021/04/28 07:34:43;;;;;;;16.98;10.68;;;11.70;47.40;;;;;;5062493;28;20029;-68
2021/04/28 07:37:08;;;;;;;14.80;10.40;;;11.60;46.80;;;;;;5060230;28;20040;-69
2021/04/28 07:39:34;;;;;;;14.02;10.48;;;11.60;46.90;;;;;;5064187;28;20442;-68
2021/04/28 07:42:01;;;;;;;17.10;10.65;;;11.70;46.40;;;;;;5054183;28;20136;-69
2021/04/28 07:44:30;;;;;;;16.60;11.05;;;11.80;46.30;;;;;;5058607;28;20052;-70
2021/04/28 07:46:56;;;;;;;15.85;11.18;;;12.00;45.90;;;;;;5053116;28;20051;-69
2021/04/28 07:49:22;;;;;;;16.95;11.55;;;11.90;46.00;;;;;;5062269;28;20527;-69
2021/04/28 07:51:48;;;;;;;19.05;11.00;;;11.80;46.10;;;;;;5062827;28;20112;-69
2021/04/28 07:54:13;;;;;;;16.40;11.70;;;12.10;45.60;;;;;;5065619;28;20074;-69
2021/04/28 07:56:39;;;;;;;17.58;11.80;;;12.00;46.50;;;;;;5063452;28;20079;-69
2021/04/28 07:59:05;;;;;;;19.02;12.07;;;12.30;45.30;;;;;;5059626;28;20048;-70
2021/04/28 08:01:31;;;;;;;18.98;11.32;;;12.60;44.40;;;;;;5061925;28;20377;-71
2021/04/28 08:03:58;;;;;;;15.82;11.77;;;12.50;43.50;;;;;;5053524;28;20033;-70
2021/04/28 08:06:24;;;;;;;19.58;12.30;;;12.50;43.80;;;;;;5044172;28;20033;-69
2021/04/28 08:08:50;;;;;;;18.90;12.23;;;12.40;44.00;;;;;;5044575;28;20041;-71
2021/04/28 08:11:16;;;;;;;16.65;12.10;;;12.40;44.70;;;;;;5043594;28;20151;-70
2021/04/28 08:13:41;;;;;;;20.65;12.98;;;12.60;45.20;;;;;;5045565;28;20357;-70
2021/04/28 08:16:08;;;;;;;21.70;12.05;;;12.60;43.20;;;;;;5044988;28;20388;-68
2021/04/28 08:18:34;;;;;;;17.88;11.50;;;12.60;42.90;;;;;;5045638;28;20033;-68
2021/04/28 08:21:00;;;;;;;15.48;11.32;;;12.70;42.90;;;;;;5045004;28;20052;-69
2021/04/28 08:23:29;;;;;;;15.43;11.85;;;13.00;42.70;;;;;;5069928;28;20041;-69
2021/04/28 08:26:02;;;;;;;19.13;11.80;;;13.20;42.80;;;;;;5061947;28;21206;-69
2021/04/28 08:28:29;;;;;;;16.48;11.48;;;13.40;42.70;;;;;;5060003;28;20064;-68
2021/04/28 08:30:55;;;;;;;15.88;12.00;;;13.30;40.60;;;;;;5065831;28;20033;-68
2021/04/28 08:33:20;;;;;;;18.95;11.82;;;13.20;42.10;;;;;;5054285;28;20093;-71
2021/04/28 08:35:46;;;;;;;18.25;12.82;;;13.10;42.20;;;;;;5054760;28;20096;-68
2021/04/28 08:38:12;;;;;;;17.35;12.10;;;13.20;43.20;;;;;;5058274;28;20040;-69
2021/04/28 08:40:38;;;;;;;15.40;11.93;;;13.10;42.70;;;;;;5055893;28;20033;-68
2021/04/28 08:43:05;;;;;;;15.02;11.55;;;13.30;43.30;;;;;;5052321;28;20026;-72
2021/04/28 08:45:32;;;;;;;16.60;11.73;;;13.30;42.10;;;;;;5053136;28;20980;-70
2021/04/28 08:47:58;;;;;;;16.38;12.05;;;13.30;43.00;;;;;;5060111;28;20043;-69
2021/04/28 08:50:23;;;;;;;18.60;12.32;;;13.50;43.10;;;;;;5054825;28;20393;-69
2021/04/28 08:52:52;;;;;;;16.63;11.85;;;13.60;42.40;;;;;;5056413;28;20037;-69
2021/04/28 08:55:18;;;;;;;15.30;11.27;;;13.70;41.80;;;;;;5044161;28;20032;-70
2021/04/28 08:57:44;;;;;;;15.60;11.40;;;13.80;42.40;;;;;;5036564;28;20047;-70
2021/04/28 09:00:10;;;;;;;17.08;11.70;;;14.10;42.00;;;;;;5034520;28;20060;-70
2021/04/28 09:02:51;;;;;;;15.07;11.57;;;14.20;42.50;;;;;;5033672;28;20026;-71
2021/04/28 09:05:17;;;;;;;17.15;11.60;;;14.20;41.00;;;;;;5033771;28;20047;-70
2021/04/28 09:07:44;;;;;;;14.98;11.52;;;14.20;40.60;;;;;;5036731;28;20132;-71
2021/04/28 09:10:24;;;;;;;20.85;11.63;;;14.10;40.90;;;;;;5035890;28;20373;-69
2021/04/28 09:13:04;;;;;;;18.55;12.10;;;13.60;41.40;;;;;;5053667;28;20040;-68
2021/04/28 09:15:33;;;;;;;15.63;11.27;;;13.50;41.70;;;;;;5059306;28;20468;-69
2021/04/28 09:17:59;;;;;;;18.92;11.93;;;13.50;41.70;;;;;;5060355;28;20033;-71
2021/04/28 09:20:31;;;;;;;15.68;11.23;;;13.70;42.00;;;;;;5056321;28;20153;-69
2021/04/28 09:23:13;;;;;;;14.93;11.63;;;14.00;41.80;;;;;;5058788;28;20071;-70
2021/04/28 09:25:46;;;;;;;15.90;11.48;;;13.80;41.20;;;;;;5038618;28;20449;-69
2021/04/28 09:28:34;;;;;;;16.85;12.25;;;14.00;41.70;;;;;;5036203;28;20120;-73
2021/04/28 09:31:06;;;;;;;17.33;11.23;;;14.10;40.80;;;;;;5038562;28;20143;-71
2021/04/28 09:33:44;;;;;;;18.08;11.13;;;14.10;40.90;;;;;;5035592;28;20037;-69
2021/04/28 09:36:13;;;;;;;18.30;12.15;;;14.20;40.40;;;;;;5032511;28;20033;-70
2021/04/28 09:38:56;;;;;;;20.98;11.45;;;14.10;40.90;;;;;;5040868;28;20497;-69
2021/04/28 09:41:55;;;;;;;15.30;11.00;;;14.30;40.80;;;;;;5046355;28;20574;-70
2021/04/28 09:44:27;;;;;;;18.15;11.55;;;14.60;39.90;;;;;;5057667;28;20037;-70
2021/04/28 09:46:53;;;;;;;19.38;11.38;;;14.60;40.20;;;;;;5057476;28;20491;-70
2021/04/28 09:49:19;;;;;;;17.80;11.15;;;14.70;41.50;;;;;;5052780;28;20037;-69
2021/04/28 09:51:44;;;;;;;18.10;11.75;;;14.80;39.50;;;;;;5058840;28;20090;-69
2021/04/28 09:54:15;;;;;;;17.85;11.15;;;14.90;39.80;;;;;;5055373;28;20041;-69
2021/04/28 09:56:42;;;;;;;18.65;11.68;;;15.10;40.20;;;;;;5063614;28;20476;-70
2021/04/28 09:59:08;;;;;;;17.63;11.35;;;15.00;38.30;;;;;;5052848;28;20029;-74
2021/04/28 10:01:39;;;;;;;16.90;11.20;;;15.10;39.50;;;;;;5050617;28;20049;-66
2021/04/28 10:04:06;;;;;;;18.38;12.00;;;15.30;38.70;;;;;;5061915;28;20048;-65
2021/04/28 10:06:50;;;;;;;14.93;11.52;;;15.20;38.00;;;;;;5041057;28;20069;-68
2021/04/28 10:09:38;;;;;;;17.87;11.60;;;15.30;38.20;;;;;;5055548;28;20082;-65
2021/04/28 10:12:06;;;;;;;18.40;11.13;;;15.40;38.90;;;;;;5049777;28;20284;-65
2021/04/28 10:14:33;;;;;;;20.38;11.82;;;15.10;38.50;;;;;;5035228;28;20037;-68
2021/04/28 10:17:00;;;;;;;19.25;12.20;;;15.40;39.00;;;;;;5036244;28;20377;-67
2021/04/28 10:19:27;;;;;;;15.75;11.35;;;15.80;38.20;;;;;;5040386;28;20037;-67
2021/04/28 10:21:57;;;;;;;17.73;12.60;;;15.90;38.70;;;;;;5043822;28;20033;-66
2021/04/28 10:24:23;;;;;;;19.77;13.60;;;16.10;39.30;;;;;;5035551;28;20041;-68
2021/04/28 10:26:49;;;;;;;22.80;13.43;;;15.60;39.60;;;;;;5037548;28;20105;-67
2021/04/28 10:29:19;;;;;;;21.77;13.35;;;15.80;41.10;;;;;;5040017;28;20374;-67
2021/04/28 10:31:50;;;;;;;25.48;13.52;;;16.10;39.90;;;;;;5046970;28;20040;-69
2021/04/28 10:34:24;;;;;;;21.20;13.93;;;16.10;39.70;;;;;;5054026;28;20043;-67
2021/04/28 10:36:52;;;;;;;19.15;14.00;;;15.90;40.20;;;;;;5054171;28;20048;-68
2021/04/28 10:39:22;;;;;;;19.40;14.80;;;15.80;41.50;;;;;;5059880;28;20553;-67
2021/04/28 10:41:49;;;;;;;18.45;13.55;;;16.10;39.70;;;;;;5063164;28;20089;-66
2021/04/28 10:44:40;;;;;;;23.27;13.45;;;16.30;39.60;;;;;;5052321;28;20036;-67
2021/04/28 10:47:20;;;;;;;20.17;13.10;;;16.30;39.20;;;;;;5039712;28;20077;-66
2021/04/28 10:50:07;;;;;;;24.45;13.82;;;16.40;39.90;;;;;;5035747;28;20048;-67
2021/04/28 10:52:35;;;;;;;19.90;14.00;;;16.70;38.40;;;;;;5058434;28;20480;-67
2021/04/28 10:55:04;;;;;;;23.63;13.98;;;16.60;37.60;;;;;;5049357;28;20037;-68
2021/04/28 10:57:38;;;;;;;22.60;15.10;;;16.60;38.80;;;;;;5057574;28;20388;-67
2021/04/28 11:00:18;;;;;;;18.60;13.70;;;16.70;39.20;;;;;;5062910;28;20068;-66
2021/04/28 11:02:44;;;;;;;18.75;13.82;;;16.70;38.30;;;;;;5049439;28;20056;-66
2021/04/28 11:05:21;;;;;;;18.92;13.80;;;16.70;37.80;;;;;;5058731;28;20515;-66
2021/04/28 11:07:56;;;;;;;22.90;14.57;;;16.60;38.40;;;;;;5063426;28;20119;-68
2021/04/28 11:10:35;;;;;;;21.95;14.73;;;16.90;37.40;;;;;;5052137;28;20032;-67
2021/04/28 11:13:04;;;;;;;22.60;14.40;;;16.90;37.90;;;;;;5063383;28;20037;-68
2021/04/28 11:15:50;;;;;;;20.33;14.88;;;17.30;36.60;;;;;;5054511;28;20032;-68
2021/04/28 11:18:36;;;;;;;19.98;14.55;;;17.10;37.00;;;;;;5054812;28;20037;-67
2021/04/28 11:21:17;;;;;;;22.92;15.55;;;17.20;37.00;;;;;;5059279;28;20063;-67
2021/04/28 11:24:08;;;;;;;21.50;14.52;;;17.20;37.40;;;;;;5053618;28;20220;-67
2021/04/28 11:26:36;;;;;;;19.95;14.32;;;17.20;36.50;;;;;;5036829;28;20029;-67
2021/04/28 11:29:04;;;;;;;18.95;15.05;;;17.20;37.20;;;;;;5040145;28;20041;-68
2021/04/28 11:31:52;;;;;;;20.02;14.93;;;17.20;37.30;;;;;;5042643;28;20071;-68
2021/04/28 11:34:26;;;;;;;19.73;15.05;;;17.10;37.20;;;;;;5059073;28;20484;-68
2021/04/28 11:36:56;;;;;;;;;;;17.30;37.30;;;;;;5053379;28;20075;-69
2021/04/28 11:39:39;;;;;;;22.55;15.80;;;17.30;36.90;;;;;;5056001;28;19920;-70
2021/04/28 11:42:08;;;;;;;25.90;15.98;;;17.20;38.00;;;;;;5039088;28;20037;-69
2021/04/28 11:44:36;;;;;;;20.15;14.98;;;17.20;36.90;;;;;;5035255;28;20029;-69
2021/04/28 11:47:16;;;;;;;21.70;16.00;;;17.20;37.40;;;;;;5041883;28;20029;-69
2021/04/28 11:49:48;;;;;;;24.00;15.35;;;17.40;36.90;;;;;;5041485;28;20343;-68
2021/04/28 11:52:15;;;;;;;22.63;15.20;;;17.60;37.40;;;;;;5033755;28;20041;-67
2021/04/28 11:54:41;;;;;;;24.13;15.30;;;17.60;37.40;;;;;;5037924;28;20033;-70
2021/04/28 11:57:08;;;;;;;25.75;17.60;;;17.80;36.20;;;;;;5032859;28;20033;-68
2021/04/28 11:59:36;;;;;;;22.80;16.35;;;17.60;36.30;;;;;;5034658;28;20041;-67
2021/04/28 12:02:07;;;;;;;25.45;16.98;;;17.50;36.70;;;;;;5036810;28;20071;-68
2021/04/28 12:04:37;;;;;;;23.23;15.75;;;17.30;37.00;;;;;;5033717;28;20487;-68
2021/04/28 12:07:05;;;;;;;21.75;16.02;;;17.40;36.80;;;;;;5034805;28;20041;-68
2021/04/28 12:09:54;;;;;;;22.08;16.70;;;17.20;37.90;;;;;;5032395;28;20033;-66
2021/04/28 12:12:26;;;;;;;21.30;16.17;;;17.50;38.00;;;;;;5030076;28;20068;-67
2021/04/28 12:15:04;;;;;;;23.77;16.55;;;17.70;38.10;;;;;;5034664;28;20454;-69
2021/04/28 12:17:31;;;;;;;21.60;16.50;;;17.70;39.10;;;;;;5053893;28;20043;-67
2021/04/28 12:19:57;;;;;;;21.70;16.83;;;17.60;39.00;;;;;;5057763;28;20114;-67
2021/04/28 12:22:24;;;;;;;21.48;16.45;;;17.60;39.80;;;;;;5052688;28;20539;-67
2021/04/28 12:24:52;;;;;;;21.65;15.75;;;17.70;40.00;;;;;;5058677;28;20040;-68
2021/04/28 12:27:35;;;;;;;22.45;16.52;;;17.60;40.00;;;;;;5062937;28;20028;-67
2021/04/28 12:30:07;;;;;;;26.65;16.30;;;17.70;40.30;;;;;;5061993;28;20068;-69
2021/04/28 12:32:38;;;;;;;22.40;16.60;;;17.70;39.60;;;;;;5040856;28;20052;-68
2021/04/28 12:35:13;;;;;;;22.92;17.60;;;18.10;39.40;;;;;;5046278;28;20037;-71
2021/04/28 12:37:40;;;;;;;28.10;17.90;;;17.70;39.30;;;;;;5047762;28;20033;-68
2021/04/28 12:40:09;;;;;;;21.42;16.48;;;17.20;41.00;;;;;;5048011;28;20060;-69